Killeen-Fort Hood Regional, TX

11:59 PM CDT on September 19, 2014 (GMT -0500)
Fort Hood | Change Station
CLOSE
Current Station
Airport
Location: Fort Hood,
Elevation: 1014 ft
Nearby Weather Stations

Elev 1014 ft 31.07 °N, 97.83 °W | Updated 1 hour ago

Partly Cloudy
Partly Cloudy
75 °F
Feels Like 75 °F
N
8
Wind Variable Wind from East

Today
High -- | Low -- °F
--% Chance of Precip.
Yesterday
High -- | Low -- °F
Precip. -- in
7:17 AM 7:31 PM
Waning Crescent, 14% visible
Pressure 29.92 in
Visibility 7.0 miles
Clouds Few 12000 ft
Dew Point 72 °F
Humidity 89%
Rainfall 0.00 in
Snow Depth Not available.
UV 0 out of 12
Pollen 10.00 out of 12
Ozone Good
PM2.5 Good
Flu Activity Not available.
METAR KGRK 200355Z 10007KT 7SM FEW120 24/22 A2992 RMK SLP130

More Conditions Fewer Conditions

Pressure 29.92 in
Visibility 7.0 miles
Clouds Few 12000 ft
Dew Point 72 °F
Humidity 89%
Rainfall 0.00 in
Snow Depth Not available.
UV 0 out of 12
Pollen 10.00 out of 12
Ozone Good
PM2.5 Good
Flu Activity Not available.
METAR KGRK 200355Z 10007KT 7SM FEW120 24/22 A2992 RMK SLP130

More Conditions Fewer Conditions

10-Day Weather Forecast

Almanac

Astronomy

Sep. 19, 2014 Rise Set
Actual Time 7:17 AM CDT 7:31 PM CDT
Civil Twilight 6:53 AM CDT 7:55 PM CDT
Nautical Twilight 6:25 AM CDT 8:24 PM CDT
Astronomical Twilight 5:56 AM CDT 8:52 PM CDT
Moon 3:17 AM CDT (9/19) 4:49 PM CDT (9/19)
Length of Visible Light 13h 02m
Length of Day
12h 13m
Tomorrow will be 1m 53s shorter.
Waning Crescent, 14% of the Moon is Illuminated
Sep 20
Waning Crescent
Sep 24
New
Oct 1
First Quarter
Oct 8
Full
Oct 15
Last Quarter

Yesterday's Extremes

State Highs State Lows

Community

WunderPhotos

Upload Photos

1,754,777 photos uploaded!

WunderBlogs® & News

Nearby

Air Quality

  Air Quality AQ Index Pollutant
Yesterday Good
OZONE
Yesterday Good
PM2.5
Current Good
PM2.5
Current Good
OZONE
Friday Good
PM10
Friday Good
OZONE
Saturday Good
PM10
Saturday Good
OZONE
Sunday Good
PM10
Sunday Good
OZONE
Monday Moderate
OZONE
Monday Good
PM10
Tuesday Moderate
OZONE
Tuesday Good
PM10

Snow Depth

Station Depth Elevation
No new snow has been reported.

Earthquake Activity

City Distance Mag. Time & Date
No recent earthquake activity has been reported nearby.
Minimum magnitude displayed is 2.5.

Coastal Water Temperatures

Place Temperature
No Stations Reporting

Nearby Weather Stations